sensor_id;sensor_type;location;lat;lon;timestamp;pressure;altitude;pressure_sealevel;temperature;humidity
76378;BME280;65200;49.500;8.654;2022-12-18T00:01:58;101868.84;;;-7.55;88.36
76378;BME280;65200;49.500;8.654;2022-12-18T00:04:26;101865.22;;;-7.49;88.55
76378;BME280;65200;49.500;8.654;2022-12-18T00:06:53;101859.03;;;-7.79;88.58
76378;BME280;65200;49.500;8.654;2022-12-18T00:09:19;101860.44;;;-7.66;89.45
76378;BME280;65200;49.500;8.654;2022-12-18T00:11:47;101859.44;;;-7.60;88.82
76378;BME280;65200;49.500;8.654;2022-12-18T00:14:14;101862.28;;;-7.69;88.57
76378;BME280;65200;49.500;8.654;2022-12-18T00:16:43;101859.13;;;-7.82;88.74
76378;BME280;65200;49.500;8.654;2022-12-18T00:19:10;101855.28;;;-7.67;88.55
76378;BME280;65200;49.500;8.654;2022-12-18T00:21:37;101850.13;;;-7.69;89.16
76378;BME280;65200;49.500;8.654;2022-12-18T00:24:06;101848.84;;;-7.86;88.88
76378;BME280;65200;49.500;8.654;2022-12-18T00:26:34;101854.94;;;-7.87;89.11
76378;BME280;65200;49.500;8.654;2022-12-18T00:29:06;101869.88;;;-7.62;88.07
76378;BME280;65200;49.500;8.654;2022-12-18T00:31:33;101853.19;;;-7.87;88.82
76378;BME280;65200;49.500;8.654;2022-12-18T00:34:00;101846.91;;;-7.78;89.06
76378;BME280;65200;49.500;8.654;2022-12-18T00:36:28;101862.09;;;-7.95;88.70
76378;BME280;65200;49.500;8.654;2022-12-18T00:38:55;101865.00;;;-7.74;88.25
76378;BME280;65200;49.500;8.654;2022-12-18T00:41:23;101861.03;;;-7.88;88.31
76378;BME280;65200;49.500;8.654;2022-12-18T00:44:10;101869.19;;;-8.02;89.44
76378;BME280;65200;49.500;8.654;2022-12-18T00:46:38;101869.97;;;-8.00;89.46
76378;BME280;65200;49.500;8.654;2022-12-18T00:49:04;101867.50;;;-8.04;88.64
76378;BME280;65200;49.500;8.654;2022-12-18T00:51:31;101869.22;;;-8.05;89.37
76378;BME280;65200;49.500;8.654;2022-12-18T00:53:58;101877.94;;;-8.06;88.72
76378;BME280;65200;49.500;8.654;2022-12-18T00:56:24;101890.94;;;-8.06;89.47
76378;BME280;65200;49.500;8.654;2022-12-18T00:58:51;101887.47;;;-8.06;88.14
76378;BME280;65200;49.500;8.654;2022-12-18T01:01:19;101896.09;;;-8.04;89.55
76378;BME280;65200;49.500;8.654;2022-12-18T01:03:45;101890.06;;;-8.06;88.99
76378;BME280;65200;49.500;8.654;2022-12-18T01:06:13;101883.09;;;-8.04;88.87
76378;BME280;65200;49.500;8.654;2022-12-18T01:08:40;101871.25;;;-8.16;89.29
76378;BME280;65200;49.500;8.654;2022-12-18T01:11:08;101874.66;;;-8.14;89.17
76378;BME280;65200;49.500;8.654;2022-12-18T01:13:34;101870.28;;;-8.12;89.18
76378;BME280;65200;49.500;8.654;2022-12-18T01:16:01;101869.22;;;-8.05;89.39
76378;BME280;65200;49.500;8.654;2022-12-18T01:18:29;101855.41;;;-8.05;88.90
76378;BME280;65200;49.500;8.654;2022-12-18T01:20:55;101850.97;;;-8.02;88.68
76378;BME280;65200;49.500;8.654;2022-12-18T01:23:22;101850.16;;;-8.04;88.79
76378;BME280;65200;49.500;8.654;2022-12-18T01:25:48;101852.72;;;-8.02;89.06
76378;BME280;65200;49.500;8.654;2022-12-18T01:28:15;101845.03;;;-8.07;89.09
76378;BME280;65200;49.500;8.654;2022-12-18T01:30:41;101848.63;;;-8.12;89.25
76378;BME280;65200;49.500;8.654;2022-12-18T01:33:08;101861.44;;;-8.05;89.26
76378;BME280;65200;49.500;8.654;2022-12-18T01:35:41;101860.53;;;-8.02;88.00
76378;BME280;65200;49.500;8.654;2022-12-18T01:38:08;101871.03;;;-8.07;87.97
76378;BME280;65200;49.500;8.654;2022-12-18T01:40:34;101879.97;;;-8.18;88.43
76378;BME280;65200;49.500;8.654;2022-12-18T01:43:01;101876.03;;;-8.33;88.83
76378;BME280;65200;49.500;8.654;2022-12-18T01:45:30;101869.97;;;-8.33;88.88
76378;BME280;65200;49.500;8.654;2022-12-18T01:47:58;101877.41;;;-8.20;89.27
76378;BME280;65200;49.500;8.654;2022-12-18T01:50:29;101891.94;;;-8.10;89.25
76378;BME280;65200;49.500;8.654;2022-12-18T01:53:00;101883.94;;;-8.02;87.34
76378;BME280;65200;49.500;8.654;2022-12-18T01:55:30;101883.38;;;-8.15;88.12
76378;BME280;65200;49.500;8.654;2022-12-18T01:57:58;101874.56;;;-8.09;88.41
76378;BME280;65200;49.500;8.654;2022-12-18T02:00:27;101870.97;;;-8.04;88.65
76378;BME280;65200;49.500;8.654;2022-12-18T02:02:54;101865.16;;;-8.15;87.97
76378;BME280;65200;49.500;8.654;2022-12-18T02:05:27;101856.03;;;-8.29;87.97
76378;BME280;65200;49.500;8.654;2022-12-18T02:08:02;101870.09;;;-8.39;88.57
76378;BME280;65200;49.500;8.654;2022-12-18T02:10:37;101869.75;;;-8.24;88.39
76378;BME280;65200;49.500;8.654;2022-12-18T02:13:11;101877.13;;;-8.43;88.84
76378;BME280;65200;49.500;8.654;2022-12-18T02:15:41;101887.41;;;-8.38;88.87
76378;BME280;65200;49.500;8.654;2022-12-18T02:18:12;101882.19;;;-8.38;88.72
76378;BME280;65200;49.500;8.654;2022-12-18T02:20:44;101893.72;;;-8.50;88.62
76378;BME280;65200;49.500;8.654;2022-12-18T02:23:24;101893.06;;;-8.60;88.67
76378;BME280;65200;49.500;8.654;2022-12-18T02:26:07;101889.53;;;-8.56;89.52
76378;BME280;65200;49.500;8.654;2022-12-18T02:28:40;101893.09;;;-8.61;88.42
76378;BME280;65200;49.500;8.654;2022-12-18T02:31:11;101892.31;;;-8.65;88.56
76378;BME280;65200;49.500;8.654;2022-12-18T02:33:38;101888.41;;;-8.45;87.70
76378;BME280;65200;49.500;8.654;2022-12-18T02:36:07;101881.75;;;-8.56;87.57
76378;BME280;65200;49.500;8.654;2022-12-18T02:38:35;101879.41;;;-8.68;88.19
76378;BME280;65200;49.500;8.654;2022-12-18T02:41:04;101872.56;;;-8.73;87.83
76378;BME280;65200;49.500;8.654;2022-12-18T02:43:31;101866.66;;;-8.80;88.26
76378;BME280;65200;49.500;8.654;2022-12-18T02:45:59;101860.66;;;-8.82;88.22
76378;BME280;65200;49.500;8.654;2022-12-18T02:48:30;101862.66;;;-8.96;88.17
76378;BME280;65200;49.500;8.654;2022-12-18T02:51:02;101854.94;;;-8.99;88.35
76378;BME280;65200;49.500;8.654;2022-12-18T02:53:35;101845.59;;;-9.07;87.73
76378;BME280;65200;49.500;8.654;2022-12-18T02:56:07;101832.16;;;-9.26;88.24
76378;BME280;65200;49.500;8.654;2022-12-18T02:58:43;101835.97;;;-9.43;88.30
76378;BME280;65200;49.500;8.654;2022-12-18T03:01:16;101830.19;;;-9.15;88.71
76378;BME280;65200;49.500;8.654;2022-12-18T03:03:47;101833.53;;;-9.10;89.01
76378;BME280;65200;49.500;8.654;2022-12-18T03:06:21;101854.31;;;-9.10;87.69
76378;BME280;65200;49.500;8.654;2022-12-18T03:08:53;101854.50;;;-9.19;89.11
76378;BME280;65200;49.500;8.654;2022-12-18T03:11:21;101843.22;;;-9.18;89.45
76378;BME280;65200;49.500;8.654;2022-12-18T03:14:09;101846.84;;;-9.26;88.70
76378;BME280;65200;49.500;8.654;2022-12-18T03:16:37;101869.38;;;-8.86;87.89
76378;BME280;65200;49.500;8.654;2022-12-18T03:19:08;101887.34;;;-8.75;87.90
76378;BME280;65200;49.500;8.654;2022-12-18T03:21:43;101896.03;;;-8.76;88.24
76378;BME280;65200;49.500;8.654;2022-12-18T03:24:11;101895.00;;;-8.69;89.03
76378;BME280;65200;49.500;8.654;2022-12-18T03:26:41;101890.50;;;-8.61;89.13
76378;BME280;65200;49.500;8.654;2022-12-18T03:29:12;101892.97;;;-8.55;88.68
76378;BME280;65200;49.500;8.654;2022-12-18T03:31:46;101897.81;;;-8.38;88.02
76378;BME280;65200;49.500;8.654;2022-12-18T03:34:19;101874.00;;;-8.59;88.35
76378;BME280;65200;49.500;8.654;2022-12-18T03:36:48;101846.13;;;-8.50;88.08
76378;BME280;65200;49.500;8.654;2022-12-18T03:39:14;101834.75;;;-8.46;87.19
76378;BME280;65200;49.500;8.654;2022-12-18T03:41:44;101842.25;;;-8.73;86.42
76378;BME280;65200;49.500;8.654;2022-12-18T03:44:13;101860.75;;;-8.88;87.46
76378;BME280;65200;49.500;8.654;2022-12-18T03:46:46;101869.38;;;-8.86;87.77
76378;BME280;65200;49.500;8.654;2022-12-18T03:49:21;101858.00;;;-8.79;87.68
76378;BME280;65200;49.500;8.654;2022-12-18T03:51:52;101861.06;;;-8.62;87.97
76378;BME280;65200;49.500;8.654;2022-12-18T03:54:23;101866.06;;;-8.52;87.45
76378;BME280;65200;49.500;8.654;2022-12-18T03:56:53;101862.69;;;-8.56;87.55
76378;BME280;65200;49.500;8.654;2022-12-18T03:59:23;101855.50;;;-8.83;87.83
76378;BME280;65200;49.500;8.654;2022-12-18T04:01:52;101850.81;;;-8.68;88.65
76378;BME280;65200;49.500;8.654;2022-12-18T04:04:21;101852.28;;;-8.56;87.35
76378;BME280;65200;49.500;8.654;2022-12-18T04:06:48;101864.22;;;-8.87;87.48
76378;BME280;65200;49.500;8.654;2022-12-18T04:09:16;101870.38;;;-8.91;87.63
76378;BME280;65200;49.500;8.654;2022-12-18T04:11:42;101870.31;;;-8.88;88.20
76378;BME280;65200;49.500;8.654;2022-12-18T04:14:11;101876.91;;;-8.72;87.42
76378;BME280;65200;49.500;8.654;2022-12-18T04:16:38;101870.44;;;-8.55;86.47
76378;BME280;65200;49.500;8.654;2022-12-18T04:19:04;101870.75;;;-8.70;87.63
76378;BME280;65200;49.500;8.654;2022-12-18T04:21:31;101864.63;;;-8.66;88.09
76378;BME280;65200;49.500;8.654;2022-12-18T04:23:57;101861.75;;;-8.54;87.26
76378;BME280;65200;49.500;8.654;2022-12-18T04:26:23;101863.41;;;-8.49;87.63
76378;BME280;65200;49.500;8.654;2022-12-18T04:28:50;101864.31;;;-8.50;86.90
76378;BME280;65200;49.500;8.654;2022-12-18T04:31:18;101863.41;;;-8.49;86.29
76378;BME280;65200;49.500;8.654;2022-12-18T04:33:44;101850.47;;;-8.52;86.60
76378;BME280;65200;49.500;8.654;2022-12-18T04:36:11;101849.88;;;-8.64;86.66
76378;BME280;65200;49.500;8.654;2022-12-18T04:38:38;101840.16;;;-8.56;86.80
76378;BME280;65200;49.500;8.654;2022-12-18T04:41:04;101846.97;;;-8.52;86.23
76378;BME280;65200;49.500;8.654;2022-12-18T04:43:31;101845.41;;;-8.57;86.88
76378;BME280;65200;49.500;8.654;2022-12-18T04:46:01;101855.41;;;-8.42;85.91
76378;BME280;65200;49.500;8.654;2022-12-18T04:48:29;101847.59;;;-8.40;86.64
76378;BME280;65200;49.500;8.654;2022-12-18T04:50:56;101846.22;;;-8.57;85.89
76378;BME280;65200;49.500;8.654;2022-12-18T04:53:22;101847.03;;;-8.53;86.17
76378;BME280;65200;49.500;8.654;2022-12-18T04:55:49;101851.56;;;-8.63;87.04
76378;BME280;65200;49.500;8.654;2022-12-18T04:58:15;101856.81;;;-8.64;87.88
76378;BME280;65200;49.500;8.654;2022-12-18T05:00:42;101857.16;;;-8.81;87.55
76378;BME280;65200;49.500;8.654;2022-12-18T05:03:08;101858.69;;;-8.71;86.87
76378;BME280;65200;49.500;8.654;2022-12-18T05:05:36;101858.22;;;-8.49;87.35
76378;BME280;65200;49.500;8.654;2022-12-18T05:08:03;101862.34;;;-8.41;86.84
76378;BME280;65200;49.500;8.654;2022-12-18T05:10:29;101865.19;;;-8.52;86.75
76378;BME280;65200;49.500;8.654;2022-12-18T05:12:55;101871.38;;;-8.57;87.69
76378;BME280;65200;49.500;8.654;2022-12-18T05:15:27;101874.69;;;-8.50;87.74
76378;BME280;65200;49.500;8.654;2022-12-18T05:17:53;101878.16;;;-8.52;88.03
76378;BME280;65200;49.500;8.654;2022-12-18T05:20:20;101883.13;;;-8.81;87.83
76378;BME280;65200;49.500;8.654;2022-12-18T05:22:48;101873.25;;;-8.64;87.55
76378;BME280;65200;49.500;8.654;2022-12-18T05:25:14;101887.19;;;-8.68;87.48
76378;BME280;65200;49.500;8.654;2022-12-18T05:27:41;101888.94;;;-8.70;87.98
76378;BME280;65200;49.500;8.654;2022-12-18T05:30:08;101889.94;;;-8.74;88.21
76378;BME280;65200;49.500;8.654;2022-12-18T05:32:35;101896.81;;;-8.73;87.38
76378;BME280;65200;49.500;8.654;2022-12-18T05:35:02;101895.22;;;-8.80;87.85
76378;BME280;65200;49.500;8.654;2022-12-18T05:37:28;101892.44;;;-8.71;88.22
76378;BME280;65200;49.500;8.654;2022-12-18T05:39:56;101880.38;;;-8.73;88.28
76378;BME280;65200;49.500;8.654;2022-12-18T05:42:22;101877.88;;;-8.78;87.21
76378;BME280;65200;49.500;8.654;2022-12-18T05:44:49;101872.38;;;-9.05;87.83
76378;BME280;65200;49.500;8.654;2022-12-18T05:47:15;101875.31;;;-8.79;88.69
76378;BME280;65200;49.500;8.654;2022-12-18T05:49:42;101882.34;;;-8.84;88.56
76378;BME280;65200;49.500;8.654;2022-12-18T05:52:08;101891.63;;;-8.73;87.09
76378;BME280;65200;49.500;8.654;2022-12-18T05:54:35;101871.59;;;-8.68;87.52
76378;BME280;65200;49.500;8.654;2022-12-18T05:57:02;101853.41;;;-8.68;87.41
76378;BME280;65200;49.500;8.654;2022-12-18T05:59:29;101861.25;;;-8.69;88.16
76378;BME280;65200;49.500;8.654;2022-12-18T06:01:55;101862.91;;;-8.67;88.46
76378;BME280;65200;49.500;8.654;2022-12-18T06:04:22;101855.09;;;-8.65;86.21
76378;BME280;65200;49.500;8.654;2022-12-18T06:06:48;101859.41;;;-8.64;86.52
76378;BME280;65200;49.500;8.654;2022-12-18T06:09:14;101871.66;;;-8.71;86.96
76378;BME280;65200;49.500;8.654;2022-12-18T06:11:41;101874.22;;;-8.69;86.53
76378;BME280;65200;49.500;8.654;2022-12-18T06:14:09;101880.75;;;-8.90;87.21
76378;BME280;65200;49.500;8.654;2022-12-18T06:16:36;101874.78;;;-8.95;88.09
76378;BME280;65200;49.500;8.654;2022-12-18T06:19:04;101884.00;;;-8.80;88.00
76378;BME280;65200;49.500;8.654;2022-12-18T06:21:32;101888.84;;;-8.64;88.01
76378;BME280;65200;49.500;8.654;2022-12-18T06:23:59;101892.06;;;-8.52;87.71
76378;BME280;65200;49.500;8.654;2022-12-18T06:26:26;101896.19;;;-8.42;86.71
76378;BME280;65200;49.500;8.654;2022-12-18T06:28:52;101898.66;;;-8.38;86.09
76378;BME280;65200;49.500;8.654;2022-12-18T06:31:20;101903.22;;;-8.47;85.55
76378;BME280;65200;49.500;8.654;2022-12-18T06:33:46;101905.16;;;-8.57;87.13
76378;BME280;65200;49.500;8.654;2022-12-18T06:36:13;101896.13;;;-8.81;88.05
76378;BME280;65200;49.500;8.654;2022-12-18T06:38:42;101908.22;;;-8.80;88.28
76378;BME280;65200;49.500;8.654;2022-12-18T06:41:09;101906.41;;;-8.76;87.89
76378;BME280;65200;49.500;8.654;2022-12-18T06:43:36;101911.75;;;-8.82;88.23
76378;BME280;65200;49.500;8.654;2022-12-18T06:46:03;101909.94;;;-8.79;87.45
76378;BME280;65200;49.500;8.654;2022-12-18T06:48:31;101903.13;;;-8.84;88.44
76378;BME280;65200;49.500;8.654;2022-12-18T06:50:58;101914.75;;;-9.03;87.89
76378;BME280;65200;49.500;8.654;2022-12-18T06:53:25;101919.94;;;-9.02;88.16
76378;BME280;65200;49.500;8.654;2022-12-18T06:55:51;101916.91;;;-8.81;88.59
76378;BME280;65200;49.500;8.654;2022-12-18T06:58:18;101929.88;;;-8.81;88.02
76378;BME280;65200;49.500;8.654;2022-12-18T07:00:44;101936.91;;;-8.86;88.05
76378;BME280;65200;49.500;8.654;2022-12-18T07:03:11;101942.94;;;-8.84;87.44
76378;BME280;65200;49.500;8.654;2022-12-18T07:05:40;101943.84;;;-8.86;87.30
76378;BME280;65200;49.500;8.654;2022-12-18T07:08:07;101949.91;;;-8.86;87.12
76378;BME280;65200;49.500;8.654;2022-12-18T07:10:40;101954.38;;;-8.94;86.67
76378;BME280;65200;49.500;8.654;2022-12-18T07:13:07;101945.75;;;-8.96;89.24
76378;BME280;65200;49.500;8.654;2022-12-18T07:15:33;101950.09;;;-8.95;88.23
76378;BME280;65200;49.500;8.654;2022-12-18T07:18:00;101951.19;;;-9.06;88.48
76378;BME280;65200;49.500;8.654;2022-12-18T07:20:26;101946.94;;;-9.12;87.95
76378;BME280;65200;49.500;8.654;2022-12-18T07:22:54;101948.78;;;-9.18;88.17
76378;BME280;65200;49.500;8.654;2022-12-18T07:25:20;101957.47;;;-9.19;88.27
76378;BME280;65200;49.500;8.654;2022-12-18T07:27:47;101958.09;;;-9.07;89.32
76378;BME280;65200;49.500;8.654;2022-12-18T07:30:13;101952.91;;;-9.07;89.47
76378;BME280;65200;49.500;8.654;2022-12-18T07:32:40;101952.84;;;-9.04;87.09
76378;BME280;65200;49.500;8.654;2022-12-18T07:35:07;101959.81;;;-9.04;87.77
76378;BME280;65200;49.500;8.654;2022-12-18T07:37:33;101963.53;;;-9.19;87.91
76378;BME280;65200;49.500;8.654;2022-12-18T07:40:01;101954.06;;;-9.23;87.41
76378;BME280;65200;49.500;8.654;2022-12-18T07:42:28;101952.28;;;-9.19;86.77
76378;BME280;65200;49.500;8.654;2022-12-18T07:44:58;101956.56;;;-9.17;86.90
76378;BME280;65200;49.500;8.654;2022-12-18T07:47:25;101949.66;;;-9.18;87.05
76378;BME280;65200;49.500;8.654;2022-12-18T07:49:51;101941.88;;;-9.18;88.13
76378;BME280;65200;49.500;8.654;2022-12-18T07:52:18;101939.06;;;-9.06;87.79
76378;BME280;65200;49.500;8.654;2022-12-18T07:54:45;101936.50;;;-9.09;87.89
76378;BME280;65200;49.500;8.654;2022-12-18T07:57:16;101938.97;;;-9.01;88.32
76378;BME280;65200;49.500;8.654;2022-12-18T07:59:43;101944.84;;;-8.92;86.81
76378;BME280;65200;49.500;8.654;2022-12-18T08:02:09;101938.75;;;-8.91;87.64
76378;BME280;65200;49.500;8.654;2022-12-18T08:04:35;101947.59;;;-9.01;88.13
76378;BME280;65200;49.500;8.654;2022-12-18T08:07:02;101950.06;;;-8.93;86.61
76378;BME280;65200;49.500;8.654;2022-12-18T08:09:29;101950.81;;;-8.87;86.47
76378;BME280;65200;49.500;8.654;2022-12-18T08:11:55;101943.88;;;-8.88;86.24
76378;BME280;65200;49.500;8.654;2022-12-18T08:14:23;101935.50;;;-9.02;87.32
76378;BME280;65200;49.500;8.654;2022-12-18T08:16:49;101947.06;;;-8.74;86.14
76378;BME280;65200;49.500;8.654;2022-12-18T08:19:16;101961.78;;;-8.74;86.12
76378;BME280;65200;49.500;8.654;2022-12-18T08:21:42;101951.50;;;-8.79;85.70
76378;BME280;65200;49.500;8.654;2022-12-18T08:24:09;101960.38;;;-8.90;86.19
76378;BME280;65200;49.500;8.654;2022-12-18T08:26:36;101960.00;;;-8.71;86.88
76378;BME280;65200;49.500;8.654;2022-12-18T08:29:02;101950.03;;;-8.49;84.81
76378;BME280;65200;49.500;8.654;2022-12-18T08:31:30;101963.34;;;-8.64;85.61
76378;BME280;65200;49.500;8.654;2022-12-18T08:33:58;101958.22;;;-9.13;85.49
76378;BME280;65200;49.500;8.654;2022-12-18T08:36:25;101953.47;;;-8.90;86.37
76378;BME280;65200;49.500;8.654;2022-12-18T08:38:51;101966.00;;;-8.67;86.38
76378;BME280;65200;49.500;8.654;2022-12-18T08:41:18;101961.75;;;-8.73;85.95
76378;BME280;65200;49.500;8.654;2022-12-18T08:43:45;101957.19;;;-8.62;86.51
76378;BME280;65200;49.500;8.654;2022-12-18T08:46:34;101939.00;;;-8.62;85.80
76378;BME280;65200;49.500;8.654;2022-12-18T08:49:01;101926.50;;;-8.43;86.22
76378;BME280;65200;49.500;8.654;2022-12-18T08:51:28;101925.00;;;-8.55;85.30
76378;BME280;65200;49.500;8.654;2022-12-18T08:53:54;101922.50;;;-8.58;85.46
76378;BME280;65200;49.500;8.654;2022-12-18T08:56:21;101923.78;;;-8.38;85.44
76378;BME280;65200;49.500;8.654;2022-12-18T08:58:47;101915.44;;;-8.16;84.49
76378;BME280;65200;49.500;8.654;2022-12-18T09:01:17;101920.03;;;-8.25;84.47
76378;BME280;65200;49.500;8.654;2022-12-18T09:03:45;101912.63;;;-8.05;83.60
76378;BME280;65200;49.500;8.654;2022-12-18T09:06:13;101912.00;;;-8.16;85.18
76378;BME280;65200;49.500;8.654;2022-12-18T09:08:41;101895.28;;;-8.41;85.36
76378;BME280;65200;49.500;8.654;2022-12-18T09:11:12;101892.94;;;-8.17;85.10
76378;BME280;65200;49.500;8.654;2022-12-18T09:13:39;101887.22;;;-7.96;84.55
76378;BME280;65200;49.500;8.654;2022-12-18T09:16:06;101891.41;;;-7.89;84.16
76378;BME280;65200;49.500;8.654;2022-12-18T09:18:33;101888.13;;;-7.97;83.70
76378;BME280;65200;49.500;8.654;2022-12-18T09:21:07;101893.78;;;-8.15;85.12
76378;BME280;65200;49.500;8.654;2022-12-18T09:23:33;101886.69;;;-8.08;84.48
76378;BME280;65200;49.500;8.654;2022-12-18T09:26:00;101894.59;;;-8.14;85.93
76378;BME280;65200;49.500;8.654;2022-12-18T09:28:26;101898.03;;;-8.12;85.24
76378;BME280;65200;49.500;8.654;2022-12-18T09:30:53;101906.69;;;-8.12;85.56
76378;BME280;65200;49.500;8.654;2022-12-18T09:33:20;101898.72;;;-8.04;85.83
76378;BME280;65200;49.500;8.654;2022-12-18T09:35:46;101910.84;;;-8.05;85.68
76378;BME280;65200;49.500;8.654;2022-12-18T09:38:16;101923.56;;;-7.93;85.03
76378;BME280;65200;49.500;8.654;2022-12-18T09:40:44;101914.16;;;-7.97;85.40
76378;BME280;65200;49.500;8.654;2022-12-18T09:43:17;101920.06;;;-7.90;85.97
76378;BME280;65200;49.500;8.654;2022-12-18T09:45:46;101924.13;;;-7.80;85.44
76378;BME280;65200;49.500;8.654;2022-12-18T09:48:18;101935.13;;;-7.68;86.14
76378;BME280;65200;49.500;8.654;2022-12-18T09:50:46;101939.13;;;-7.55;85.67
76378;BME280;65200;49.500;8.654;2022-12-18T09:53:19;101942.28;;;-7.42;85.33
76378;BME280;65200;49.500;8.654;2022-12-18T09:55:47;101949.78;;;-7.30;85.09
76378;BME280;65200;49.500;8.654;2022-12-18T09:58:18;101958.25;;;-7.22;85.16
76378;BME280;65200;49.500;8.654;2022-12-18T10:00:46;101961.56;;;-7.17;84.09
76378;BME280;65200;49.500;8.654;2022-12-18T10:03:15;101965.63;;;-7.07;84.21
76378;BME280;65200;49.500;8.654;2022-12-18T10:05:47;101962.50;;;-7.20;84.57
76378;BME280;65200;49.500;8.654;2022-12-18T10:08:23;101952.69;;;-7.10;84.48
76378;BME280;65200;49.500;8.654;2022-12-18T10:10:53;101963.78;;;-7.02;84.88
76378;BME280;65200;49.500;8.654;2022-12-18T10:13:23;101954.03;;;-6.95;84.39
76378;BME280;65200;49.500;8.654;2022-12-18T10:16:04;101943.44;;;-6.88;84.23
76378;BME280;65200;49.500;8.654;2022-12-18T10:18:50;101953.72;;;-6.83;84.10
76378;BME280;65200;49.500;8.654;2022-12-18T10:21:32;101941.91;;;-6.66;83.58
76378;BME280;65200;49.500;8.654;2022-12-18T10:24:11;101940.72;;;-6.54;83.10
76378;BME280;65200;49.500;8.654;2022-12-18T10:26:40;101950.72;;;-6.39;83.04
76378;BME280;65200;49.500;8.654;2022-12-18T10:29:09;101946.06;;;-6.30;83.62
76378;BME280;65200;49.500;8.654;2022-12-18T10:31:38;101945.22;;;-6.30;82.90
76378;BME280;65200;49.500;8.654;2022-12-18T10:34:08;101951.97;;;-6.23;82.80
76378;BME280;65200;49.500;8.654;2022-12-18T10:36:35;101931.25;;;-6.29;83.07
76378;BME280;65200;49.500;8.654;2022-12-18T10:39:14;101933.00;;;-6.01;82.58
76378;BME280;65200;49.500;8.654;2022-12-18T10:41:41;101925.31;;;-6.05;81.83
76378;BME280;65200;49.500;8.654;2022-12-18T10:44:15;101931.84;;;-5.92;82.77
76378;BME280;65200;49.500;8.654;2022-12-18T10:46:43;101920.47;;;-5.90;82.28
76378;BME280;65200;49.500;8.654;2022-12-18T10:49:19;101899.88;;;-5.73;82.04
76378;BME280;65200;49.500;8.654;2022-12-18T10:51:47;101898.16;;;-6.00;83.79
76378;BME280;65200;49.500;8.654;2022-12-18T10:54:17;101901.38;;;-5.92;84.47
76378;BME280;65200;49.500;8.654;2022-12-18T10:56:44;101892.47;;;-5.60;83.99
76378;BME280;65200;49.500;8.654;2022-12-18T10:59:12;101904.63;;;-5.59;83.20
76378;BME280;65200;49.500;8.654;2022-12-18T11:01:47;101907.00;;;-5.78;83.93
76378;BME280;65200;49.500;8.654;2022-12-18T11:04:17;101906.47;;;-5.63;83.35
76378;BME280;65200;49.500;8.654;2022-12-18T11:06:53;101915.53;;;-5.48;84.46
76378;BME280;65200;49.500;8.654;2022-12-18T11:09:23;101904.22;;;-5.47;84.00
76378;BME280;65200;49.500;8.654;2022-12-18T11:11:50;101909.22;;;-5.41;82.83
76378;BME280;65200;49.500;8.654;2022-12-18T11:14:22;101900.00;;;-5.26;83.30
76378;BME280;65200;49.500;8.654;2022-12-18T11:16:50;101905.97;;;-5.23;83.70
76378;BME280;65200;49.500;8.654;2022-12-18T11:19:26;101911.38;;;-5.27;84.01
76378;BME280;65200;49.500;8.654;2022-12-18T11:21:55;101915.22;;;-5.13;84.57
76378;BME280;65200;49.500;8.654;2022-12-18T11:24:27;101928.56;;;-5.20;84.88
76378;BME280;65200;49.500;8.654;2022-12-18T11:26:55;101919.28;;;-5.04;84.43
76378;BME280;65200;49.500;8.654;2022-12-18T11:29:31;101907.19;;;-5.08;84.49
76378;BME280;65200;49.500;8.654;2022-12-18T11:32:33;101916.72;;;-5.06;84.10
76378;BME280;65200;49.500;8.654;2022-12-18T11:35:12;101920.16;;;-5.05;84.73
76378;BME280;65200;49.500;8.654;2022-12-18T11:37:43;101910.91;;;-4.91;83.70
76378;BME280;65200;49.500;8.654;2022-12-18T11:40:17;101912.69;;;-4.68;83.51
76378;BME280;65200;49.500;8.654;2022-12-18T11:42:50;101930.69;;;-4.59;83.06
76378;BME280;65200;49.500;8.654;2022-12-18T11:45:27;101919.28;;;-4.58;83.58
76378;BME280;65200;49.500;8.654;2022-12-18T11:47:58;101920.47;;;-4.67;84.85
76378;BME280;65200;49.500;8.654;2022-12-18T11:50:30;101915.09;;;-4.39;83.05
76378;BME280;65200;49.500;8.654;2022-12-18T11:52:58;101902.88;;;-4.17;82.20
76378;BME280;65200;49.500;8.654;2022-12-18T11:55:31;101899.09;;;-4.32;82.76
76378;BME280;65200;49.500;8.654;2022-12-18T11:58:10;101878.97;;;-4.30;83.18
76378;BME280;65200;49.500;8.654;2022-12-18T12:00:44;101870.22;;;-4.52;84.35
76378;BME280;65200;49.500;8.654;2022-12-18T12:03:24;101867.44;;;-4.47;84.29
76378;BME280;65200;49.500;8.654;2022-12-18T12:06:09;101876.75;;;-4.40;84.61
76378;BME280;65200;49.500;8.654;2022-12-18T12:08:48;101887.59;;;-4.28;83.52
76378;BME280;65200;49.500;8.654;2022-12-18T12:11:28;101903.03;;;-4.43;84.76
76378;BME280;65200;49.500;8.654;2022-12-18T12:14:12;101903.13;;;-4.23;83.87
76378;BME280;65200;49.500;8.654;2022-12-18T12:16:48;101896.78;;;-4.39;84.24
76378;BME280;65200;49.500;8.654;2022-12-18T12:19:26;101895.06;;;-4.40;85.25
76378;BME280;65200;49.500;8.654;2022-12-18T12:22:03;101887.25;;;-4.18;83.90
76378;BME280;65200;49.500;8.654;2022-12-18T12:24:42;101892.72;;;-4.25;84.81
76378;BME280;65200;49.500;8.654;2022-12-18T12:27:18;101891.09;;;-4.50;85.62
76378;BME280;65200;49.500;8.654;2022-12-18T12:29:54;101881.94;;;-4.39;85.33
76378;BME280;65200;49.500;8.654;2022-12-18T12:32:35;101884.91;;;-4.26;85.22
76378;BME280;65200;49.500;8.654;2022-12-18T12:35:15;101888.69;;;-4.33;85.66
76378;BME280;65200;49.500;8.654;2022-12-18T12:37:52;101891.56;;;-4.39;85.95
76378;BME280;65200;49.500;8.654;2022-12-18T12:40:26;101889.59;;;-4.34;85.91
76378;BME280;65200;49.500;8.654;2022-12-18T12:42:55;101892.03;;;-4.08;84.20
76378;BME280;65200;49.500;8.654;2022-12-18T12:45:43;101882.22;;;-4.46;86.16
76378;BME280;65200;49.500;8.654;2022-12-18T12:48:17;101885.09;;;-4.52;86.10
76378;BME280;65200;49.500;8.654;2022-12-18T12:50:46;101857.03;;;-4.27;84.33
76378;BME280;65200;49.500;8.654;2022-12-18T12:53:21;101857.41;;;-4.14;84.03
76378;BME280;65200;49.500;8.654;2022-12-18T12:55:50;101854.56;;;-4.30;85.83
76378;BME280;65200;49.500;8.654;2022-12-18T12:58:26;101841.72;;;-4.36;87.14
76378;BME280;65200;49.500;8.654;2022-12-18T13:01:01;101832.03;;;-4.34;86.90
76378;BME280;65200;49.500;8.654;2022-12-18T13:03:39;101832.09;;;-4.14;85.76